MOL Paramount — 3ECH9 — position and weather

sailwx.info

Track history (hours):
 
Tides and Currents Weather Stations Pressure Air Temp Water Temp Dewpoint Dewpoint Depression Visibility Wind Speed Wind Dir Waves Ship Positions

MOL Paramount

Last reported at 2017-Feb-15 15:28 UTC. Time now 2017-Feb-21 14:41 UTC.
Position S 22°57' W 041°38'.

Length 293 m; draft 12.6 m.

Type: Cargo ship. MMSI: 371519000.

Date/timePositionNaut miles runAvg speedWind from/ knotsBaromVisibWave heightAir tempDewpointWater temp
2017-Feb-15 15:28S 22°57' W 041°38'6717.3
2017-Feb-15 11:33S 23°04' W 042°51'1716.7
2017-Feb-15 10:33S 22°59' W 043°08'7 7.5
2017-Feb-15 09:33S 22°53' W 043°12'0 0.3
2017-Feb-15 08:29S 22°52' W 043°12'0 0.0
2017-Feb-15 07:29S 22°52' W 043°12'0 0.0
2017-Feb-15 06:29S 22°52' W 043°12'0 0.0
2017-Feb-15 05:29S 22°52' W 043°12'0 0.0
2017-Feb-15 04:29S 22°52' W 043°12'0 0.0
2017-Feb-15 03:29S 22°52' W 043°12'0 0.0
2017-Feb-15 02:29S 22°52' W 043°12'0 0.0
2017-Feb-15 01:29S 22°52' W 043°12'0 0.0
2017-Feb-15 00:29S 22°52' W 043°12'0 0.0
2017-Feb-14 23:29S 22°52' W 043°12'0 0.0
2017-Feb-14 22:29S 22°52' W 043°12'0 0.0
2017-Feb-14 21:29S 22°52' W 043°12'0 0.0
2017-Feb-14 20:29S 22°52' W 043°12'0 0.0
2017-Feb-14 19:29S 22°52' W 043°12'0 0.0
2017-Feb-14 18:29S 22°52' W 043°12'2 2.0
2017-Feb-14 17:33S 22°53' W 043°10'6 5.9
2017-Feb-14 16:33S 22°59' W 043°08'6 5.9
2017-Feb-14 15:33S 23°04' W 043°06'1010.1
2017-Feb-14 14:33S 23°10' W 043°16'15817.5
2017-Feb-14 05:33S 24°01' W 045°58'1818.3
2017-Feb-14 04:33S 24°03' W 046°18'5 5.4
2017-Feb-14 03:33S 23°58' W 046°18'0 0.2
2017-Feb-14 02:33S 23°58' W 046°18'0 0.0
2017-Feb-14 01:27S 23°58' W 046°18'0 0.0
2017-Feb-14 00:24S 23°58' W 046°18'0 0.0
2017-Feb-13 23:30S 23°58' W 046°18'0 0.0
2017-Feb-13 22:30S 23°58' W 046°18'0 0.0
2017-Feb-13 21:30S 23°58' W 046°18'0 0.0
2017-Feb-13 20:30S 23°58' W 046°18'0 0.0
2017-Feb-13 19:33S 23°58' W 046°18'0 0.0
2017-Feb-13 18:30S 23°58' W 046°18'0 0.0
2017-Feb-13 17:33S 23°58' W 046°18'0 0.0
2017-Feb-13 16:30S 23°58' W 046°18'0 0.0
2017-Feb-13 15:30S 23°58' W 046°18'0 0.0
2017-Feb-13 14:30S 23°58' W 046°18'0 0.0
2017-Feb-13 13:30S 23°58' W 046°18'0 0.0
2017-Feb-13 12:33S 23°58' W 046°18'0 0.0
2017-Feb-13 11:33S 23°58' W 046°18'0 0.0
2017-Feb-13 10:30S 23°58' W 046°18'0 0.0
2017-Feb-13 09:30S 23°58' W 046°18'0 0.0
2017-Feb-13 08:33S 23°58' W 046°18'0 0.0
2017-Feb-13 07:27S 23°58' W 046°18'0 0.0
2017-Feb-13 06:27S 23°58' W 046°18'0 0.0
2017-Feb-13 05:33S 23°58' W 046°18'5 5.1
2017-Feb-13 04:33S 24°02' W 046°21'1 0.8
2017-Feb-13 03:34S 24°02' W 046°22'3 2.8
2017-Feb-13 02:34S 24°05' W 046°23'4 4.4
2017-Feb-13 01:34S 24°09' W 046°24'8 8.0
2017-Feb-13 00:34S 24°17' W 046°27'1212.2
2017-Feb-12 23:34S 24°28' W 046°32'1414.1
2017-Feb-12 22:33S 24°39' W 046°41'1514.8
2017-Feb-12 21:33S 24°52' W 046°51'1616.5
2017-Feb-12 20:33S 25°04' W 047°02'1717.1
2017-Feb-12 19:33S 25°18' W 047°13'1817.7
2017-Feb-12 18:33S 25°33' W 047°25'1817.7
2017-Feb-12 17:33S 25°47' W 047°37'  
2017-Feb-07 22:20S 24°39' W 046°46'910.9
2017-Feb-07 21:33S 24°34' W 046°39'1010.5
2017-Feb-07 20:33S 24°26' W 046°31'1010.5
2017-Feb-07 19:34S 24°16' W 046°27'1110.5
2017-Feb-07 18:33S 24°06' W 046°23'9 8.7
2017-Feb-07 17:33S 23°59' W 046°17'1 1.1
2017-Feb-07 16:32S 23°58' W 046°18'0 0.0
2017-Feb-07 15:17S 23°58' W 046°18'0 0.0
2017-Feb-07 14:32S 23°58' W 046°18'0 0.0
2017-Feb-07 13:29S 23°58' W 046°18'0 0.0
2017-Feb-07 12:32S 23°58' W 046°18'0 0.0
2017-Feb-07 11:32S 23°58' W 046°18'0 0.0
2017-Feb-07 10:23S 23°58' W 046°18'0 0.0
2017-Feb-07 09:32S 23°58' W 046°18'0 0.0
2017-Feb-07 08:29S 23°58' W 046°18'0 0.0
2017-Feb-07 07:23S 23°58' W 046°18'0 0.0
2017-Feb-07 06:20S 23°58' W 046°18'0 0.0
2017-Feb-07 05:32S 23°58' W 046°18'0 0.0
2017-Feb-07 04:29S 23°58' W 046°18'0 0.0
2017-Feb-07 03:29S 23°58' W 046°18'1 0.9
2017-Feb-07 02:33S 23°59' W 046°17'5 5.2
2017-Feb-07 01:33S 24°04' W 046°18'2 2.0
2017-Feb-07 00:32S 24°05' W 046°16'0 0.1
2017-Feb-06 23:32S 24°05' W 046°16'0 0.0
2017-Feb-06 22:32S 24°05' W 046°16'0 0.1
2017-Feb-06 21:33S 24°05' W 046°16'9 9.6
2017-Feb-06 20:33S 24°03' W 046°06'19214.8
2017-Feb-06 07:32S 23°29' W 042°39'1515.0
2017-Feb-06 06:33S 23°23' W 042°24'  
Track history (hours):
 
Tides and Currents Weather Stations Pressure Air Temp Water Temp Dewpoint Dewpoint Depression Visibility Wind Speed Wind Dir Waves Ship Positions

MOL Paramount

Last reported at 2017-Feb-15 15:28 UTC. Time now 2017-Feb-21 14:41 UTC.
Position S 22°57' W 041°38'.

Length 293 m; draft 12.6 m.

Type: Cargo ship. MMSI: 371519000.

Date/timePositionNaut miles runAvg speedWind from/ knotsBaromVisibWave heightAir tempDewpointWater temp
2017-Feb-15 15:28S 22°57' W 041°38'6717.3
2017-Feb-15 11:33S 23°04' W 042°51'1716.7
2017-Feb-15 10:33S 22°59' W 043°08'7 7.5
2017-Feb-15 09:33S 22°53' W 043°12'0 0.3
2017-Feb-15 08:29S 22°52' W 043°12'0 0.0
2017-Feb-15 07:29S 22°52' W 043°12'0 0.0
2017-Feb-15 06:29S 22°52' W 043°12'0 0.0
2017-Feb-15 05:29S 22°52' W 043°12'0 0.0
2017-Feb-15 04:29S 22°52' W 043°12'0 0.0
2017-Feb-15 03:29S 22°52' W 043°12'0 0.0
2017-Feb-15 02:29S 22°52' W 043°12'0 0.0
2017-Feb-15 01:29S 22°52' W 043°12'0 0.0
2017-Feb-15 00:29S 22°52' W 043°12'0 0.0
2017-Feb-14 23:29S 22°52' W 043°12'0 0.0
2017-Feb-14 22:29S 22°52' W 043°12'0 0.0
2017-Feb-14 21:29S 22°52' W 043°12'0 0.0
2017-Feb-14 20:29S 22°52' W 043°12'0 0.0
2017-Feb-14 19:29S 22°52' W 043°12'0 0.0
2017-Feb-14 18:29S 22°52' W 043°12'2 2.0
2017-Feb-14 17:33S 22°53' W 043°10'6 5.9
2017-Feb-14 16:33S 22°59' W 043°08'6 5.9
2017-Feb-14 15:33S 23°04' W 043°06'1010.1
2017-Feb-14 14:33S 23°10' W 043°16'15817.5
2017-Feb-14 05:33S 24°01' W 045°58'1818.3
2017-Feb-14 04:33S 24°03' W 046°18'5 5.4
2017-Feb-14 03:33S 23°58' W 046°18'0 0.2
2017-Feb-14 02:33S 23°58' W 046°18'0 0.0
2017-Feb-14 01:27S 23°58' W 046°18'0 0.0
2017-Feb-14 00:24S 23°58' W 046°18'0 0.0
2017-Feb-13 23:30S 23°58' W 046°18'0 0.0
2017-Feb-13 22:30S 23°58' W 046°18'0 0.0
2017-Feb-13 21:30S 23°58' W 046°18'0 0.0
2017-Feb-13 20:30S 23°58' W 046°18'0 0.0
2017-Feb-13 19:33S 23°58' W 046°18'0 0.0
2017-Feb-13 18:30S 23°58' W 046°18'0 0.0
2017-Feb-13 17:33S 23°58' W 046°18'0 0.0
2017-Feb-13 16:30S 23°58' W 046°18'0 0.0
2017-Feb-13 15:30S 23°58' W 046°18'0 0.0
2017-Feb-13 14:30S 23°58' W 046°18'0 0.0
2017-Feb-13 13:30S 23°58' W 046°18'0 0.0
2017-Feb-13 12:33S 23°58' W 046°18'0 0.0
2017-Feb-13 11:33S 23°58' W 046°18'0 0.0
2017-Feb-13 10:30S 23°58' W 046°18'0 0.0
2017-Feb-13 09:30S 23°58' W 046°18'0 0.0
2017-Feb-13 08:33S 23°58' W 046°18'0 0.0
2017-Feb-13 07:27S 23°58' W 046°18'0 0.0
2017-Feb-13 06:27S 23°58' W 046°18'0 0.0
2017-Feb-13 05:33S 23°58' W 046°18'5 5.1
2017-Feb-13 04:33S 24°02' W 046°21'1 0.8
2017-Feb-13 03:34S 24°02' W 046°22'3 2.8
2017-Feb-13 02:34S 24°05' W 046°23'4 4.4
2017-Feb-13 01:34S 24°09' W 046°24'8 8.0
2017-Feb-13 00:34S 24°17' W 046°27'1212.2
2017-Feb-12 23:34S 24°28' W 046°32'1414.1
2017-Feb-12 22:33S 24°39' W 046°41'1514.8
2017-Feb-12 21:33S 24°52' W 046°51'1616.5
2017-Feb-12 20:33S 25°04' W 047°02'1717.1
2017-Feb-12 19:33S 25°18' W 047°13'1817.7
2017-Feb-12 18:33S 25°33' W 047°25'1817.7
2017-Feb-12 17:33S 25°47' W 047°37'  
2017-Feb-07 22:20S 24°39' W 046°46'910.9
2017-Feb-07 21:33S 24°34' W 046°39'1010.5
2017-Feb-07 20:33S 24°26' W 046°31'1010.5
2017-Feb-07 19:34S 24°16' W 046°27'1110.5
2017-Feb-07 18:33S 24°06' W 046°23'9 8.7
2017-Feb-07 17:33S 23°59' W 046°17'1 1.1
2017-Feb-07 16:32S 23°58' W 046°18'0 0.0
2017-Feb-07 15:17S 23°58' W 046°18'0 0.0
2017-Feb-07 14:32S 23°58' W 046°18'0 0.0
2017-Feb-07 13:29S 23°58' W 046°18'0 0.0
2017-Feb-07 12:32S 23°58' W 046°18'0 0.0
2017-Feb-07 11:32S 23°58' W 046°18'0 0.0
2017-Feb-07 10:23S 23°58' W 046°18'0 0.0
2017-Feb-07 09:32S 23°58' W 046°18'0 0.0
2017-Feb-07 08:29S 23°58' W 046°18'0 0.0
2017-Feb-07 07:23S 23°58' W 046°18'0 0.0
2017-Feb-07 06:20S 23°58' W 046°18'0 0.0
2017-Feb-07 05:32S 23°58' W 046°18'0 0.0
2017-Feb-07 04:29S 23°58' W 046°18'0 0.0
2017-Feb-07 03:29S 23°58' W 046°18'1 0.9
2017-Feb-07 02:33S 23°59' W 046°17'5 5.2
2017-Feb-07 01:33S 24°04' W 046°18'2 2.0
2017-Feb-07 00:32S 24°05' W 046°16'0 0.1
2017-Feb-06 23:32S 24°05' W 046°16'0 0.0
2017-Feb-06 22:32S 24°05' W 046°16'0 0.1
2017-Feb-06 21:33S 24°05' W 046°16'9 9.6
2017-Feb-06 20:33S 24°03' W 046°06'19214.8
2017-Feb-06 07:32S 23°29' W 042°39'1515.0
2017-Feb-06 06:33S 23°23' W 042°24'  

Dump ship's entire track history